sensor_id;sensor_type;location;lat;lon;timestamp;P1;durP1;ratioP1;P2;durP2;ratioP2
60292;SDS011;52402;52.670;6.750;2022-12-19T00:01:13;47.15;;;39.08;;
60292;SDS011;52402;52.670;6.750;2022-12-19T00:03:52;34.50;;;15.75;;
60292;SDS011;52402;52.670;6.750;2022-12-19T00:06:23;47.03;;;39.50;;
60292;SDS011;52402;52.670;6.750;2022-12-19T00:08:50;27.98;;;15.27;;
60292;SDS011;52402;52.670;6.750;2022-12-19T00:11:17;49.50;;;41.90;;
60292;SDS011;52402;52.670;6.750;2022-12-19T00:13:44;50.60;;;40.20;;
60292;SDS011;52402;52.670;6.750;2022-12-19T00:16:14;48.63;;;39.78;;
60292;SDS011;52402;52.670;6.750;2022-12-19T00:18:41;29.25;;;15.07;;
60292;SDS011;52402;52.670;6.750;2022-12-19T00:21:09;48.17;;;39.80;;
60292;SDS011;52402;52.670;6.750;2022-12-19T00:23:38;35.42;;;17.90;;
60292;SDS011;52402;52.670;6.750;2022-12-19T00:26:07;49.42;;;39.38;;
60292;SDS011;52402;52.670;6.750;2022-12-19T00:29:01;37.55;;;16.50;;
60292;SDS011;52402;52.670;6.750;2022-12-19T00:31:30;49.25;;;39.15;;
60292;SDS011;52402;52.670;6.750;2022-12-19T00:33:58;38.10;;;17.92;;
60292;SDS011;52402;52.670;6.750;2022-12-19T00:36:25;48.95;;;38.88;;
60292;SDS011;52402;52.670;6.750;2022-12-19T00:38:53;33.58;;;16.48;;
60292;SDS011;52402;52.670;6.750;2022-12-19T00:41:21;46.40;;;37.45;;
60292;SDS011;52402;52.670;6.750;2022-12-19T00:43:52;47.58;;;38.25;;
60292;SDS011;52402;52.670;6.750;2022-12-19T00:46:19;48.95;;;40.05;;
60292;SDS011;52402;52.670;6.750;2022-12-19T00:48:45;46.20;;;38.10;;
60292;SDS011;52402;52.670;6.750;2022-12-19T00:51:12;48.25;;;38.13;;
60292;SDS011;52402;52.670;6.750;2022-12-19T00:53:40;46.95;;;37.20;;
60292;SDS011;52402;52.670;6.750;2022-12-19T00:56:09;49.17;;;40.58;;
60292;SDS011;52402;52.670;6.750;2022-12-19T00:58:36;50.75;;;39.40;;
60292;SDS011;52402;52.670;6.750;2022-12-19T01:01:06;48.75;;;39.10;;
60292;SDS011;52402;52.670;6.750;2022-12-19T01:03:33;49.22;;;38.70;;
60292;SDS011;52402;52.670;6.750;2022-12-19T01:05:58;46.78;;;38.75;;
60292;SDS011;52402;52.670;6.750;2022-12-19T01:08:24;49.33;;;39.33;;
60292;SDS011;52402;52.670;6.750;2022-12-19T01:10:49;46.70;;;38.00;;
60292;SDS011;52402;52.670;6.750;2022-12-19T01:13:16;50.08;;;39.90;;
60292;SDS011;52402;52.670;6.750;2022-12-19T01:15:43;47.80;;;38.40;;
60292;SDS011;52402;52.670;6.750;2022-12-19T01:18:09;51.40;;;40.47;;
60292;SDS011;52402;52.670;6.750;2022-12-19T01:20:39;50.65;;;39.08;;
60292;SDS011;52402;52.670;6.750;2022-12-19T01:23:07;51.90;;;41.33;;
60292;SDS011;52402;52.670;6.750;2022-12-19T01:25:34;48.58;;;39.15;;
60292;SDS011;52402;52.670;6.750;2022-12-19T01:28:01;51.42;;;39.88;;
60292;SDS011;52402;52.670;6.750;2022-12-19T01:30:27;33.58;;;15.93;;
60292;SDS011;52402;52.670;6.750;2022-12-19T01:32:53;50.33;;;39.72;;
60292;SDS011;52402;52.670;6.750;2022-12-19T01:35:19;51.95;;;40.03;;
60292;SDS011;52402;52.670;6.750;2022-12-19T01:37:45;57.03;;;42.38;;
60292;SDS011;52402;52.670;6.750;2022-12-19T01:40:10;51.03;;;40.28;;
60292;SDS011;52402;52.670;6.750;2022-12-19T01:42:37;54.13;;;42.70;;
60292;SDS011;52402;52.670;6.750;2022-12-19T01:47:32;54.13;;;43.22;;
60292;SDS011;52402;52.670;6.750;2022-12-19T01:50:08;56.75;;;41.42;;
60292;SDS011;52402;52.670;6.750;2022-12-19T01:52:38;53.53;;;41.00;;
60292;SDS011;52402;52.670;6.750;2022-12-19T01:55:05;53.30;;;40.90;;
60292;SDS011;52402;52.670;6.750;2022-12-19T01:57:31;54.05;;;41.60;;
60292;SDS011;52402;52.670;6.750;2022-12-19T01:59:58;50.60;;;40.13;;
60292;SDS011;52402;52.670;6.750;2022-12-19T02:02:27;55.45;;;41.35;;
60292;SDS011;52402;52.670;6.750;2022-12-19T02:04:57;52.95;;;40.92;;
60292;SDS011;52402;52.670;6.750;2022-12-19T02:07:22;25.83;;;12.30;;
60292;SDS011;52402;52.670;6.750;2022-12-19T02:09:54;52.35;;;39.15;;
60292;SDS011;52402;52.670;6.750;2022-12-19T02:12:20;49.90;;;37.60;;
60292;SDS011;52402;52.670;6.750;2022-12-19T02:14:50;53.30;;;41.17;;
60292;SDS011;52402;52.670;6.750;2022-12-19T02:17:41;52.15;;;40.95;;
60292;SDS011;52402;52.670;6.750;2022-12-19T02:36:14;77.55;;;52.33;;
60292;SDS011;52402;52.670;6.750;2022-12-19T02:38:47;35.15;;;16.25;;
60292;SDS011;52402;52.670;6.750;2022-12-19T02:41:20;78.78;;;53.45;;
60292;SDS011;52402;52.670;6.750;2022-12-19T02:43:52;89.85;;;54.70;;
60292;SDS011;52402;52.670;6.750;2022-12-19T02:46:20;94.80;;;56.13;;
60292;SDS011;52402;52.670;6.750;2022-12-19T02:48:48;102.28;;;59.00;;
60292;SDS011;52402;52.670;6.750;2022-12-19T02:51:14;95.18;;;56.15;;
60292;SDS011;52402;52.670;6.750;2022-12-19T02:53:39;102.53;;;58.85;;
60292;SDS011;52402;52.670;6.750;2022-12-19T02:56:21;123.93;;;64.72;;
60292;SDS011;52402;52.670;6.750;2022-12-19T02:59:04;104.43;;;61.55;;
60292;SDS011;52402;52.670;6.750;2022-12-19T03:01:56;113.10;;;62.13;;
60292;SDS011;52402;52.670;6.750;2022-12-19T03:04:57;109.22;;;60.70;;
60292;SDS011;52402;52.670;6.750;2022-12-19T03:07:52;41.28;;;18.58;;
60292;SDS011;52402;52.670;6.750;2022-12-19T03:13:25;122.72;;;63.63;;
60292;SDS011;52402;52.670;6.750;2022-12-19T03:16:04;120.63;;;63.42;;
60292;SDS011;52402;52.670;6.750;2022-12-19T03:18:33;135.57;;;67.20;;
60292;SDS011;52402;52.670;6.750;2022-12-19T03:21:16;43.75;;;19.35;;
60292;SDS011;52402;52.670;6.750;2022-12-19T03:23:47;105.82;;;63.10;;
60292;SDS011;52402;52.670;6.750;2022-12-19T03:26:17;106.03;;;62.83;;
60292;SDS011;52402;52.670;6.750;2022-12-19T03:28:59;104.10;;;63.08;;
60292;SDS011;52402;52.670;6.750;2022-12-19T03:31:33;112.63;;;64.70;;
60292;SDS011;52402;52.670;6.750;2022-12-19T03:34:04;113.43;;;64.60;;
60292;SDS011;52402;52.670;6.750;2022-12-19T03:36:41;120.40;;;66.93;;
60292;SDS011;52402;52.670;6.750;2022-12-19T03:39:10;123.05;;;67.95;;
60292;SDS011;52402;52.670;6.750;2022-12-19T03:41:37;144.98;;;72.15;;
60292;SDS011;52402;52.670;6.750;2022-12-19T03:44:24;122.15;;;69.32;;
60292;SDS011;52402;52.670;6.750;2022-12-19T03:46:53;136.48;;;75.40;;
60292;SDS011;52402;52.670;6.750;2022-12-19T03:49:24;121.68;;;67.85;;
60292;SDS011;52402;52.670;6.750;2022-12-19T03:54:19;136.55;;;75.93;;
60292;SDS011;52402;52.670;6.750;2022-12-19T03:57:13;148.38;;;75.22;;
60292;SDS011;52402;52.670;6.750;2022-12-19T03:59:45;49.63;;;21.65;;
60292;SDS011;52402;52.670;6.750;2022-12-19T04:02:19;121.90;;;68.82;;
60292;SDS011;52402;52.670;6.750;2022-12-19T04:04:49;139.02;;;73.93;;
60292;SDS011;52402;52.670;6.750;2022-12-19T04:07:16;116.18;;;67.13;;
60292;SDS011;52402;52.670;6.750;2022-12-19T04:09:43;117.80;;;69.00;;
60292;SDS011;52402;52.670;6.750;2022-12-19T04:12:14;136.60;;;72.32;;
60292;SDS011;52402;52.670;6.750;2022-12-19T04:14:43;110.80;;;67.65;;
60292;SDS011;52402;52.670;6.750;2022-12-19T04:20:02;107.25;;;64.53;;
60292;SDS011;52402;52.670;6.750;2022-12-19T04:25:21;106.68;;;64.25;;
60292;SDS011;52402;52.670;6.750;2022-12-19T04:27:53;114.22;;;66.82;;
60292;SDS011;52402;52.670;6.750;2022-12-19T04:30:22;108.55;;;63.60;;
60292;SDS011;52402;52.670;6.750;2022-12-19T04:32:48;102.00;;;63.20;;
60292;SDS011;52402;52.670;6.750;2022-12-19T04:35:14;116.05;;;66.13;;
60292;SDS011;52402;52.670;6.750;2022-12-19T04:37:40;108.55;;;65.43;;
60292;SDS011;52402;52.670;6.750;2022-12-19T04:40:06;126.25;;;69.47;;
60292;SDS011;52402;52.670;6.750;2022-12-19T04:42:33;111.15;;;66.50;;
60292;SDS011;52402;52.670;6.750;2022-12-19T04:44:59;108.70;;;65.70;;
60292;SDS011;52402;52.670;6.750;2022-12-19T04:47:24;120.55;;;69.32;;
60292;SDS011;52402;52.670;6.750;2022-12-19T04:49:50;108.35;;;65.15;;
60292;SDS011;52402;52.670;6.750;2022-12-19T04:52:15;101.32;;;63.75;;
60292;SDS011;52402;52.670;6.750;2022-12-19T04:54:41;115.47;;;66.68;;
60292;SDS011;52402;52.670;6.750;2022-12-19T04:57:07;121.00;;;68.43;;
60292;SDS011;52402;52.670;6.750;2022-12-19T04:59:32;105.38;;;66.03;;
60292;SDS011;52402;52.670;6.750;2022-12-19T05:01:58;130.45;;;72.75;;
60292;SDS011;52402;52.670;6.750;2022-12-19T05:04:23;111.15;;;67.30;;
60292;SDS011;52402;52.670;6.750;2022-12-19T05:06:49;122.38;;;69.45;;
60292;SDS011;52402;52.670;6.750;2022-12-19T05:09:18;111.45;;;68.10;;
60292;SDS011;52402;52.670;6.750;2022-12-19T05:11:44;114.22;;;71.30;;
60292;SDS011;52402;52.670;6.750;2022-12-19T05:14:09;104.03;;;66.13;;
60292;SDS011;52402;52.670;6.750;2022-12-19T05:16:35;112.50;;;67.93;;
60292;SDS011;52402;52.670;6.750;2022-12-19T05:19:00;112.70;;;68.85;;
60292;SDS011;52402;52.670;6.750;2022-12-19T05:21:26;122.72;;;76.35;;
60292;SDS011;52402;52.670;6.750;2022-12-19T05:23:52;128.10;;;73.72;;
60292;SDS011;52402;52.670;6.750;2022-12-19T05:26:17;122.00;;;75.97;;
60292;SDS011;52402;52.670;6.750;2022-12-19T05:28:43;132.20;;;78.80;;
60292;SDS011;52402;52.670;6.750;2022-12-19T05:31:10;122.50;;;76.28;;
60292;SDS011;52402;52.670;6.750;2022-12-19T05:33:39;135.20;;;83.85;;
60292;SDS011;52402;52.670;6.750;2022-12-19T05:36:06;162.45;;;84.40;;
60292;SDS011;52402;52.670;6.750;2022-12-19T05:38:32;121.63;;;73.50;;
60292;SDS011;52402;52.670;6.750;2022-12-19T05:40:59;116.55;;;71.13;;
60292;SDS011;52402;52.670;6.750;2022-12-19T05:43:24;126.53;;;74.03;;
60292;SDS011;52402;52.670;6.750;2022-12-19T05:45:50;116.60;;;71.60;;
60292;SDS011;52402;52.670;6.750;2022-12-19T05:48:16;124.97;;;72.25;;
60292;SDS011;52402;52.670;6.750;2022-12-19T05:50:45;110.63;;;70.95;;
60292;SDS011;52402;52.670;6.750;2022-12-19T05:53:13;145.50;;;77.10;;
60292;SDS011;52402;52.670;6.750;2022-12-19T05:55:39;114.38;;;72.25;;
60292;SDS011;52402;52.670;6.750;2022-12-19T05:58:05;110.47;;;68.38;;
60292;SDS011;52402;52.670;6.750;2022-12-19T06:00:30;134.05;;;76.35;;
60292;SDS011;52402;52.670;6.750;2022-12-19T06:02:56;111.15;;;72.97;;
60292;SDS011;52402;52.670;6.750;2022-12-19T06:05:21;110.45;;;73.13;;
60292;SDS011;52402;52.670;6.750;2022-12-19T06:07:47;109.35;;;74.65;;
60292;SDS011;52402;52.670;6.750;2022-12-19T06:10:12;116.03;;;77.28;;
60292;SDS011;52402;52.670;6.750;2022-12-19T06:12:38;133.77;;;82.88;;
60292;SDS011;52402;52.670;6.750;2022-12-19T06:15:04;109.88;;;71.55;;
60292;SDS011;52402;52.670;6.750;2022-12-19T06:17:30;104.50;;;69.85;;
60292;SDS011;52402;52.670;6.750;2022-12-19T06:19:55;113.38;;;71.20;;
60292;SDS011;52402;52.670;6.750;2022-12-19T06:22:21;107.28;;;66.70;;
60292;SDS011;52402;52.670;6.750;2022-12-19T06:24:48;103.97;;;69.22;;
60292;SDS011;52402;52.670;6.750;2022-12-19T06:27:13;122.60;;;74.90;;
60292;SDS011;52402;52.670;6.750;2022-12-19T06:29:39;137.95;;;80.32;;
60292;SDS011;52402;52.670;6.750;2022-12-19T06:32:04;114.72;;;70.07;;
60292;SDS011;52402;52.670;6.750;2022-12-19T06:34:30;120.80;;;71.55;;
60292;SDS011;52402;52.670;6.750;2022-12-19T06:36:56;109.03;;;69.78;;
60292;SDS011;52402;52.670;6.750;2022-12-19T06:39:21;96.55;;;64.53;;
60292;SDS011;52402;52.670;6.750;2022-12-19T06:41:48;104.53;;;67.10;;
60292;SDS011;52402;52.670;6.750;2022-12-19T06:44:32;129.55;;;74.78;;
60292;SDS011;52402;52.670;6.750;2022-12-19T06:46:58;98.15;;;65.25;;
60292;SDS011;52402;52.670;6.750;2022-12-19T06:49:23;100.55;;;66.72;;
60292;SDS011;52402;52.670;6.750;2022-12-19T06:51:49;112.28;;;67.88;;
60292;SDS011;52402;52.670;6.750;2022-12-19T06:54:14;99.72;;;64.50;;
60292;SDS011;52402;52.670;6.750;2022-12-19T06:56:41;122.85;;;69.82;;
60292;SDS011;52402;52.670;6.750;2022-12-19T06:59:10;109.78;;;65.97;;
60292;SDS011;52402;52.670;6.750;2022-12-19T07:01:49;105.72;;;62.92;;
60292;SDS011;52402;52.670;6.750;2022-12-19T07:04:31;137.40;;;70.65;;
60292;SDS011;52402;52.670;6.750;2022-12-19T07:07:01;118.40;;;62.97;;
60292;SDS011;52402;52.670;6.750;2022-12-19T07:09:27;119.13;;;63.15;;
60292;SDS011;52402;52.670;6.750;2022-12-19T07:11:54;109.82;;;60.22;;
60292;SDS011;52402;52.670;6.750;2022-12-19T07:14:19;104.13;;;60.45;;
60292;SDS011;52402;52.670;6.750;2022-12-19T07:16:45;106.88;;;60.67;;
60292;SDS011;52402;52.670;6.750;2022-12-19T07:19:13;86.70;;;54.72;;
60292;SDS011;52402;52.670;6.750;2022-12-19T07:21:39;86.75;;;55.28;;
60292;SDS011;52402;52.670;6.750;2022-12-19T07:24:05;96.32;;;57.30;;
60292;SDS011;52402;52.670;6.750;2022-12-19T07:26:31;80.63;;;50.78;;
60292;SDS011;52402;52.670;6.750;2022-12-19T07:28:57;109.28;;;57.90;;
60292;SDS011;52402;52.670;6.750;2022-12-19T07:31:24;106.32;;;58.95;;
60292;SDS011;52402;52.670;6.750;2022-12-19T07:33:49;98.53;;;57.13;;
60292;SDS011;52402;52.670;6.750;2022-12-19T07:36:15;111.45;;;59.80;;
60292;SDS011;52402;52.670;6.750;2022-12-19T07:38:41;111.57;;;56.90;;
60292;SDS011;52402;52.670;6.750;2022-12-19T07:41:06;104.13;;;56.55;;
60292;SDS011;52402;52.670;6.750;2022-12-19T07:43:32;111.70;;;59.35;;
60292;SDS011;52402;52.670;6.750;2022-12-19T07:45:57;116.13;;;58.30;;
60292;SDS011;52402;52.670;6.750;2022-12-19T07:48:23;98.18;;;57.10;;
60292;SDS011;52402;52.670;6.750;2022-12-19T07:50:49;102.85;;;57.20;;
60292;SDS011;52402;52.670;6.750;2022-12-19T07:53:15;82.15;;;51.65;;
60292;SDS011;52402;52.670;6.750;2022-12-19T07:55:40;103.50;;;56.00;;
60292;SDS011;52402;52.670;6.750;2022-12-19T07:58:06;118.10;;;58.45;;
60292;SDS011;52402;52.670;6.750;2022-12-19T08:00:34;139.38;;;62.72;;
60292;SDS011;52402;52.670;6.750;2022-12-19T08:03:00;108.15;;;56.72;;
60292;SDS011;52402;52.670;6.750;2022-12-19T08:05:26;102.53;;;56.70;;
60292;SDS011;52402;52.670;6.750;2022-12-19T08:07:52;100.13;;;55.67;;
60292;SDS011;52402;52.670;6.750;2022-12-19T08:10:19;98.35;;;56.90;;
60292;SDS011;52402;52.670;6.750;2022-12-19T08:12:46;96.55;;;55.33;;
60292;SDS011;52402;52.670;6.750;2022-12-19T08:15:12;99.75;;;56.33;;
60292;SDS011;52402;52.670;6.750;2022-12-19T08:17:38;95.55;;;55.92;;
60292;SDS011;52402;52.670;6.750;2022-12-19T08:20:05;87.88;;;52.90;;
60292;SDS011;52402;52.670;6.750;2022-12-19T08:22:31;110.88;;;55.70;;
60292;SDS011;52402;52.670;6.750;2022-12-19T08:24:56;97.13;;;55.10;;
60292;SDS011;52402;52.670;6.750;2022-12-19T08:27:22;92.97;;;54.42;;
60292;SDS011;52402;52.670;6.750;2022-12-19T08:29:48;104.43;;;56.50;;
60292;SDS011;52402;52.670;6.750;2022-12-19T08:32:14;97.28;;;56.15;;
60292;SDS011;52402;52.670;6.750;2022-12-19T08:34:40;112.78;;;57.78;;
60292;SDS011;52402;52.670;6.750;2022-12-19T08:37:06;95.85;;;56.40;;
60292;SDS011;52402;52.670;6.750;2022-12-19T08:39:32;86.70;;;53.28;;
60292;SDS011;52402;52.670;6.750;2022-12-19T08:41:58;72.95;;;50.80;;
60292;SDS011;52402;52.670;6.750;2022-12-19T08:44:24;86.35;;;54.58;;
60292;SDS011;52402;52.670;6.750;2022-12-19T08:46:50;99.68;;;57.08;;
60292;SDS011;52402;52.670;6.750;2022-12-19T08:49:17;96.05;;;56.75;;
60292;SDS011;52402;52.670;6.750;2022-12-19T08:51:43;87.78;;;54.70;;
60292;SDS011;52402;52.670;6.750;2022-12-19T08:54:09;87.15;;;55.90;;
60292;SDS011;52402;52.670;6.750;2022-12-19T08:56:36;82.30;;;54.42;;
60292;SDS011;52402;52.670;6.750;2022-12-19T08:59:02;74.57;;;52.53;;
60292;SDS011;52402;52.670;6.750;2022-12-19T09:01:28;79.05;;;52.45;;
60292;SDS011;52402;52.670;6.750;2022-12-19T09:03:56;87.85;;;54.53;;
60292;SDS011;52402;52.670;6.750;2022-12-19T09:06:22;106.57;;;58.47;;
60292;SDS011;52402;52.670;6.750;2022-12-19T09:08:48;89.38;;;56.38;;
60292;SDS011;52402;52.670;6.750;2022-12-19T09:11:15;79.97;;;53.55;;
60292;SDS011;52402;52.670;6.750;2022-12-19T09:13:42;84.70;;;54.30;;
60292;SDS011;52402;52.670;6.750;2022-12-19T09:21:05;83.82;;;53.45;;
60292;SDS011;52402;52.670;6.750;2022-12-19T09:23:32;75.13;;;50.75;;
60292;SDS011;52402;52.670;6.750;2022-12-19T09:26:11;82.57;;;54.33;;
60292;SDS011;52402;52.670;6.750;2022-12-19T09:28:38;82.25;;;53.58;;
60292;SDS011;52402;52.670;6.750;2022-12-19T09:31:05;72.88;;;50.38;;
60292;SDS011;52402;52.670;6.750;2022-12-19T09:33:34;72.28;;;51.25;;
60292;SDS011;52402;52.670;6.750;2022-12-19T09:36:01;73.20;;;51.35;;
60292;SDS011;52402;52.670;6.750;2022-12-19T09:38:28;80.25;;;52.67;;
60292;SDS011;52402;52.670;6.750;2022-12-19T09:41:01;83.18;;;51.65;;
60292;SDS011;52402;52.670;6.750;2022-12-19T09:46:19;72.35;;;50.95;;
60292;SDS011;52402;52.670;6.750;2022-12-19T09:48:48;79.33;;;51.50;;
60292;SDS011;52402;52.670;6.750;2022-12-19T09:56:48;71.93;;;51.30;;
60292;SDS011;52402;52.670;6.750;2022-12-19T10:02:12;62.08;;;46.05;;
60292;SDS011;52402;52.670;6.750;2022-12-19T10:04:56;59.97;;;43.67;;
60292;SDS011;52402;52.670;6.750;2022-12-19T10:07:39;61.30;;;44.30;;
60292;SDS011;52402;52.670;6.750;2022-12-19T10:10:04;57.78;;;42.85;;
60292;SDS011;52402;52.670;6.750;2022-12-19T10:12:35;54.25;;;42.30;;
60292;SDS011;52402;52.670;6.750;2022-12-19T10:15:19;58.03;;;43.42;;
60292;SDS011;52402;52.670;6.750;2022-12-19T10:18:11;53.97;;;40.63;;
60292;SDS011;52402;52.670;6.750;2022-12-19T10:20:41;46.60;;;38.47;;
60292;SDS011;52402;52.670;6.750;2022-12-19T10:28:33;55.63;;;41.55;;
60292;SDS011;52402;52.670;6.750;2022-12-19T10:36:37;54.92;;;41.45;;
60292;SDS011;52402;52.670;6.750;2022-12-19T10:39:41;47.28;;;38.45;;
60292;SDS011;52402;52.670;6.750;2022-12-19T10:42:13;52.97;;;40.10;;
60292;SDS011;52402;52.670;6.750;2022-12-19T10:44:43;48.00;;;39.53;;
60292;SDS011;52402;52.670;6.750;2022-12-19T10:47:14;51.60;;;39.65;;
60292;SDS011;52402;52.670;6.750;2022-12-19T10:49:41;52.40;;;39.42;;
60292;SDS011;52402;52.670;6.750;2022-12-19T10:52:08;53.60;;;39.60;;
60292;SDS011;52402;52.670;6.750;2022-12-19T10:57:46;50.45;;;37.90;;
60292;SDS011;52402;52.670;6.750;2022-12-19T11:02:27;52.10;;;40.25;;
60292;SDS011;52402;52.670;6.750;2022-12-19T11:04:59;45.78;;;37.13;;
60292;SDS011;52402;52.670;6.750;2022-12-19T11:07:26;51.20;;;39.28;;
60292;SDS011;52402;52.670;6.750;2022-12-19T11:09:51;45.25;;;37.33;;
60292;SDS011;52402;52.670;6.750;2022-12-19T11:12:18;48.75;;;37.05;;
60292;SDS011;52402;52.670;6.750;2022-12-19T11:14:49;52.80;;;39.70;;
60292;SDS011;52402;52.670;6.750;2022-12-19T11:17:25;46.20;;;37.75;;
60292;SDS011;52402;52.670;6.750;2022-12-19T11:20:00;51.88;;;39.08;;
60292;SDS011;52402;52.670;6.750;2022-12-19T11:22:36;50.38;;;39.67;;
60292;SDS011;52402;52.670;6.750;2022-12-19T11:25:02;44.42;;;34.67;;
60292;SDS011;52402;52.670;6.750;2022-12-19T11:27:30;48.83;;;38.90;;
60292;SDS011;52402;52.670;6.750;2022-12-19T11:30:07;49.40;;;38.22;;
60292;SDS011;52402;52.670;6.750;2022-12-19T11:32:37;46.25;;;36.97;;
60292;SDS011;52402;52.670;6.750;2022-12-19T11:35:15;43.47;;;36.10;;
60292;SDS011;52402;52.670;6.750;2022-12-19T11:40:39;40.25;;;34.70;;
60292;SDS011;52402;52.670;6.750;2022-12-19T11:43:15;47.45;;;37.60;;
60292;SDS011;52402;52.670;6.750;2022-12-19T11:45:43;46.58;;;36.70;;
60292;SDS011;52402;52.670;6.750;2022-12-19T11:49:07;48.85;;;36.58;;
60292;SDS011;52402;52.670;6.750;2022-12-19T11:51:32;39.53;;;33.83;;
60292;SDS011;52402;52.670;6.750;2022-12-19T11:54:33;38.33;;;34.22;;
60292;SDS011;52402;52.670;6.750;2022-12-19T11:57:02;38.55;;;34.20;;
60292;SDS011;52402;52.670;6.750;2022-12-19T11:59:33;37.75;;;33.20;;
60292;SDS011;52402;52.670;6.750;2022-12-19T12:07:19;34.78;;;31.10;;
60292;SDS011;52402;52.670;6.750;2022-12-19T12:09:54;36.58;;;32.70;;
60292;SDS011;52402;52.670;6.750;2022-12-19T12:12:46;33.25;;;29.75;;
60292;SDS011;52402;52.670;6.750;2022-12-19T12:18:20;34.72;;;30.95;;
60292;SDS011;52402;52.670;6.750;2022-12-19T12:20:59;32.65;;;29.15;;
60292;SDS011;52402;52.670;6.750;2022-12-19T12:29:16;30.15;;;26.95;;
60292;SDS011;52402;52.670;6.750;2022-12-19T12:32:03;31.45;;;27.92;;
60292;SDS011;52402;52.670;6.750;2022-12-19T12:43:03;27.48;;;24.60;;
60292;SDS011;52402;52.670;6.750;2022-12-19T12:45:35;26.60;;;23.80;;
60292;SDS011;52402;52.670;6.750;2022-12-19T12:48:14;31.65;;;28.35;;
60292;SDS011;52402;52.670;6.750;2022-12-19T12:50:45;29.63;;;26.48;;
60292;SDS011;52402;52.670;6.750;2022-12-19T12:53:12;28.50;;;25.60;;
60292;SDS011;52402;52.670;6.750;2022-12-19T12:55:42;28.48;;;25.42;;
60292;SDS011;52402;52.670;6.750;2022-12-19T13:01:32;27.23;;;24.02;;
60292;SDS011;52402;52.670;6.750;2022-12-19T13:04:17;27.05;;;24.25;;
60292;SDS011;52402;52.670;6.750;2022-12-19T13:07:11;26.58;;;23.90;;
60292;SDS011;52402;52.670;6.750;2022-12-19T13:09:42;26.70;;;24.10;;
60292;SDS011;52402;52.670;6.750;2022-12-19T13:27:58;25.08;;;22.60;;
60292;SDS011;52402;52.670;6.750;2022-12-19T13:31:11;24.90;;;22.50;;
60292;SDS011;52402;52.670;6.750;2022-12-19T13:42:14;22.00;;;19.75;;
60292;SDS011;52402;52.670;6.750;2022-12-19T13:45:06;20.38;;;18.25;;
60292;SDS011;52402;52.670;6.750;2022-12-19T13:47:57;20.10;;;17.48;;
60292;SDS011;52402;52.670;6.750;2022-12-19T13:53:14;20.35;;;18.27;;
60292;SDS011;52402;52.670;6.750;2022-12-19T13:55:44;19.85;;;17.83;;
60292;SDS011;52402;52.670;6.750;2022-12-19T13:58:24;19.38;;;17.38;;
60292;SDS011;52402;52.670;6.750;2022-12-19T14:00:52;19.77;;;17.77;;
60292;SDS011;52402;52.670;6.750;2022-12-19T14:03:22;18.48;;;16.58;;
60292;SDS011;52402;52.670;6.750;2022-12-19T14:06:24;19.08;;;17.08;;
60292;SDS011;52402;52.670;6.750;2022-12-19T14:08:54;18.52;;;16.25;;
60292;SDS011;52402;52.670;6.750;2022-12-19T14:11:29;18.63;;;15.55;;
60292;SDS011;52402;52.670;6.750;2022-12-19T14:13:56;18.40;;;16.50;;
60292;SDS011;52402;52.670;6.750;2022-12-19T14:16:43;18.95;;;16.75;;
60292;SDS011;52402;52.670;6.750;2022-12-19T14:19:20;18.85;;;16.95;;
60292;SDS011;52402;52.670;6.750;2022-12-19T14:21:47;17.35;;;15.48;;
60292;SDS011;52402;52.670;6.750;2022-12-19T14:26:40;18.85;;;16.25;;
60292;SDS011;52402;52.670;6.750;2022-12-19T14:29:20;18.23;;;16.33;;
60292;SDS011;52402;52.670;6.750;2022-12-19T14:31:49;16.25;;;14.65;;
60292;SDS011;52402;52.670;6.750;2022-12-19T14:34:19;17.45;;;15.68;;
60292;SDS011;52402;52.670;6.750;2022-12-19T14:36:48;18.00;;;16.17;;
60292;SDS011;52402;52.670;6.750;2022-12-19T14:39:17;16.98;;;15.20;;
60292;SDS011;52402;52.670;6.750;2022-12-19T14:41:44;17.48;;;15.48;;
60292;SDS011;52402;52.670;6.750;2022-12-19T14:44:42;16.90;;;15.18;;
60292;SDS011;52402;52.670;6.750;2022-12-19T14:47:11;17.95;;;16.15;;
60292;SDS011;52402;52.670;6.750;2022-12-19T14:49:38;18.60;;;16.67;;
60292;SDS011;52402;52.670;6.750;2022-12-19T14:52:04;19.00;;;17.13;;
60292;SDS011;52402;52.670;6.750;2022-12-19T14:55:14;18.58;;;16.38;;
60292;SDS011;52402;52.670;6.750;2022-12-19T14:57:52;18.27;;;16.48;;
60292;SDS011;52402;52.670;6.750;2022-12-19T15:00:29;18.40;;;16.50;;
60292;SDS011;52402;52.670;6.750;2022-12-19T15:02:59;18.77;;;16.90;;
60292;SDS011;52402;52.670;6.750;2022-12-19T15:05:29;18.10;;;16.30;;
60292;SDS011;52402;52.670;6.750;2022-12-19T15:07:56;17.50;;;15.80;;
60292;SDS011;52402;52.670;6.750;2022-12-19T15:10:24;19.95;;;17.48;;
60292;SDS011;52402;52.670;6.750;2022-12-19T15:15:44;19.25;;;17.33;;
60292;SDS011;52402;52.670;6.750;2022-12-19T15:20:53;20.05;;;17.95;;
60292;SDS011;52402;52.670;6.750;2022-12-19T15:23:20;21.88;;;19.58;;
60292;SDS011;52402;52.670;6.750;2022-12-19T15:25:46;24.20;;;21.60;;
60292;SDS011;52402;52.670;6.750;2022-12-19T15:28:16;21.70;;;18.58;;
60292;SDS011;52402;52.670;6.750;2022-12-19T15:30:45;23.63;;;19.88;;
60292;SDS011;52402;52.670;6.750;2022-12-19T15:33:23;21.60;;;19.30;;
60292;SDS011;52402;52.670;6.750;2022-12-19T15:35:49;21.75;;;19.38;;
60292;SDS011;52402;52.670;6.750;2022-12-19T15:38:15;22.08;;;19.67;;
60292;SDS011;52402;52.670;6.750;2022-12-19T15:40:41;21.75;;;18.92;;
60292;SDS011;52402;52.670;6.750;2022-12-19T15:43:10;21.52;;;19.23;;
60292;SDS011;52402;52.670;6.750;2022-12-19T15:45:44;20.38;;;18.25;;
60292;SDS011;52402;52.670;6.750;2022-12-19T15:48:14;21.42;;;19.13;;
60292;SDS011;52402;52.670;6.750;2022-12-19T15:50:41;21.30;;;19.08;;
60292;SDS011;52402;52.670;6.750;2022-12-19T15:55:59;21.20;;;18.92;;
60292;SDS011;52402;52.670;6.750;2022-12-19T15:58:26;20.90;;;18.70;;
60292;SDS011;52402;52.670;6.750;2022-12-19T16:00:53;20.35;;;18.15;;
60292;SDS011;52402;52.670;6.750;2022-12-19T16:03:21;21.77;;;19.40;;
60292;SDS011;52402;52.670;6.750;2022-12-19T16:05:47;20.25;;;18.15;;
60292;SDS011;52402;52.670;6.750;2022-12-19T16:08:17;21.08;;;18.20;;
60292;SDS011;52402;52.670;6.750;2022-12-19T16:10:45;20.60;;;18.40;;
60292;SDS011;52402;52.670;6.750;2022-12-19T16:13:19;21.13;;;18.35;;
60292;SDS011;52402;52.670;6.750;2022-12-19T16:15:47;22.50;;;19.02;;
60292;SDS011;52402;52.670;6.750;2022-12-19T16:18:14;21.33;;;18.33;;
60292;SDS011;52402;52.670;6.750;2022-12-19T16:20:40;21.42;;;18.60;;
60292;SDS011;52402;52.670;6.750;2022-12-19T16:23:07;20.67;;;18.13;;
60292;SDS011;52402;52.670;6.750;2022-12-19T16:28:28;21.73;;;19.42;;
60292;SDS011;52402;52.670;6.750;2022-12-19T16:30:55;22.48;;;19.17;;
60292;SDS011;52402;52.670;6.750;2022-12-19T16:33:22;24.17;;;20.98;;
60292;SDS011;52402;52.670;6.750;2022-12-19T16:35:53;21.98;;;19.55;;
60292;SDS011;52402;52.670;6.750;2022-12-19T16:38:20;23.42;;;20.90;;
60292;SDS011;52402;52.670;6.750;2022-12-19T16:40:45;23.65;;;21.08;;
60292;SDS011;52402;52.670;6.750;2022-12-19T16:43:14;22.33;;;20.00;;
60292;SDS011;52402;52.670;6.750;2022-12-19T16:45:47;24.75;;;21.27;;
60292;SDS011;52402;52.670;6.750;2022-12-19T16:48:20;21.67;;;19.27;;